sensor_id;sensor_type;location;lat;lon;timestamp;P1;durP1;ratioP1;P2;durP2;ratioP2
48789;SDS011;41718;51.980;5.734;2022-12-18T00:01:13;53.40;;;23.33;;
48789;SDS011;41718;51.980;5.734;2022-12-18T00:06:25;48.45;;;23.13;;
48789;SDS011;41718;51.980;5.734;2022-12-18T00:11:28;47.45;;;22.52;;
48789;SDS011;41718;51.980;5.734;2022-12-18T00:16:34;40.45;;;21.23;;
48789;SDS011;41718;51.980;5.734;2022-12-18T00:21:41;42.15;;;21.15;;
48789;SDS011;41718;51.980;5.734;2022-12-18T00:26:44;49.00;;;23.98;;
48789;SDS011;41718;51.980;5.734;2022-12-18T00:31:46;51.15;;;24.45;;
48789;SDS011;41718;51.980;5.734;2022-12-18T00:36:51;42.55;;;20.58;;
48789;SDS011;41718;51.980;5.734;2022-12-18T00:41:52;48.95;;;22.63;;
48789;SDS011;41718;51.980;5.734;2022-12-18T00:47:13;45.00;;;20.67;;
48789;SDS011;41718;51.980;5.734;2022-12-18T00:52:14;55.78;;;25.75;;
48789;SDS011;41718;51.980;5.734;2022-12-18T00:57:16;48.33;;;22.10;;
48789;SDS011;41718;51.980;5.734;2022-12-18T01:02:17;47.80;;;21.70;;
48789;SDS011;41718;51.980;5.734;2022-12-18T01:07:19;48.55;;;23.55;;
48789;SDS011;41718;51.980;5.734;2022-12-18T01:12:20;53.03;;;21.10;;
48789;SDS011;41718;51.980;5.734;2022-12-18T01:17:22;48.70;;;22.60;;
48789;SDS011;41718;51.980;5.734;2022-12-18T01:22:23;43.53;;;21.85;;
48789;SDS011;41718;51.980;5.734;2022-12-18T01:27:25;39.70;;;20.50;;
48789;SDS011;41718;51.980;5.734;2022-12-18T01:32:29;42.60;;;21.10;;
48789;SDS011;41718;51.980;5.734;2022-12-18T01:37:31;42.08;;;20.80;;
48789;SDS011;41718;51.980;5.734;2022-12-18T01:42:33;40.50;;;18.05;;
48789;SDS011;41718;51.980;5.734;2022-12-18T01:47:38;39.75;;;20.58;;
48789;SDS011;41718;51.980;5.734;2022-12-18T01:52:48;41.70;;;19.30;;
48789;SDS011;41718;51.980;5.734;2022-12-18T01:57:52;38.70;;;18.88;;
48789;SDS011;41718;51.980;5.734;2022-12-18T02:02:56;42.25;;;19.80;;
48789;SDS011;41718;51.980;5.734;2022-12-18T02:18:12;34.05;;;18.45;;
48789;SDS011;41718;51.980;5.734;2022-12-18T02:28:25;32.70;;;19.48;;
48789;SDS011;41718;51.980;5.734;2022-12-18T02:33:31;36.00;;;19.60;;
48789;SDS011;41718;51.980;5.734;2022-12-18T02:38:36;34.65;;;16.90;;
48789;SDS011;41718;51.980;5.734;2022-12-18T02:43:38;35.33;;;17.80;;
48789;SDS011;41718;51.980;5.734;2022-12-18T02:48:40;39.95;;;19.02;;
48789;SDS011;41718;51.980;5.734;2022-12-18T02:53:47;35.28;;;17.23;;
48789;SDS011;41718;51.980;5.734;2022-12-18T02:59:07;33.92;;;17.38;;
48789;SDS011;41718;51.980;5.734;2022-12-18T03:04:24;40.63;;;19.55;;
48789;SDS011;41718;51.980;5.734;2022-12-18T03:09:32;39.00;;;18.10;;
48789;SDS011;41718;51.980;5.734;2022-12-18T03:14:36;35.67;;;18.10;;
48789;SDS011;41718;51.980;5.734;2022-12-18T03:19:39;34.33;;;16.67;;
48789;SDS011;41718;51.980;5.734;2022-12-18T03:24:43;25.88;;;15.63;;
48789;SDS011;41718;51.980;5.734;2022-12-18T03:29:54;37.35;;;17.00;;
48789;SDS011;41718;51.980;5.734;2022-12-18T03:35:26;35.75;;;16.45;;
48789;SDS011;41718;51.980;5.734;2022-12-18T03:40:42;27.30;;;14.90;;
48789;SDS011;41718;51.980;5.734;2022-12-18T03:46:02;33.08;;;17.00;;
48789;SDS011;41718;51.980;5.734;2022-12-18T03:51:14;28.88;;;14.18;;
48789;SDS011;41718;51.980;5.734;2022-12-18T03:56:25;32.65;;;15.73;;
48789;SDS011;41718;51.980;5.734;2022-12-18T04:01:35;27.25;;;17.55;;
48789;SDS011;41718;51.980;5.734;2022-12-18T04:06:41;28.65;;;14.98;;
48789;SDS011;41718;51.980;5.734;2022-12-18T04:11:45;31.08;;;13.98;;
48789;SDS011;41718;51.980;5.734;2022-12-18T04:16:47;26.88;;;13.48;;
48789;SDS011;41718;51.980;5.734;2022-12-18T04:21:49;21.55;;;12.85;;
48789;SDS011;41718;51.980;5.734;2022-12-18T04:26:50;26.45;;;14.60;;
48789;SDS011;41718;51.980;5.734;2022-12-18T04:31:52;22.50;;;13.57;;
48789;SDS011;41718;51.980;5.734;2022-12-18T04:36:53;24.95;;;13.20;;
48789;SDS011;41718;51.980;5.734;2022-12-18T04:41:54;24.85;;;12.68;;
48789;SDS011;41718;51.980;5.734;2022-12-18T04:46:56;20.75;;;12.48;;
48789;SDS011;41718;51.980;5.734;2022-12-18T04:51:58;23.73;;;12.15;;
48789;SDS011;41718;51.980;5.734;2022-12-18T04:56:59;22.77;;;12.32;;
48789;SDS011;41718;51.980;5.734;2022-12-18T05:02:01;23.13;;;12.57;;
48789;SDS011;41718;51.980;5.734;2022-12-18T05:07:02;23.58;;;12.05;;
48789;SDS011;41718;51.980;5.734;2022-12-18T05:12:04;21.42;;;11.95;;
48789;SDS011;41718;51.980;5.734;2022-12-18T05:17:05;19.23;;;11.65;;
48789;SDS011;41718;51.980;5.734;2022-12-18T05:22:07;23.23;;;12.95;;
48789;SDS011;41718;51.980;5.734;2022-12-18T05:27:08;23.98;;;12.20;;
48789;SDS011;41718;51.980;5.734;2022-12-18T05:32:10;20.30;;;11.38;;
48789;SDS011;41718;51.980;5.734;2022-12-18T05:37:11;23.65;;;11.82;;
48789;SDS011;41718;51.980;5.734;2022-12-18T05:42:13;22.05;;;11.20;;
48789;SDS011;41718;51.980;5.734;2022-12-18T05:47:15;17.52;;;9.50;;
48789;SDS011;41718;51.980;5.734;2022-12-18T05:52:17;16.10;;;10.38;;
48789;SDS011;41718;51.980;5.734;2022-12-18T05:57:18;16.48;;;10.63;;
48789;SDS011;41718;51.980;5.734;2022-12-18T06:02:20;16.95;;;11.75;;
48789;SDS011;41718;51.980;5.734;2022-12-18T06:07:22;22.27;;;12.32;;
48789;SDS011;41718;51.980;5.734;2022-12-18T06:12:23;22.70;;;12.02;;
48789;SDS011;41718;51.980;5.734;2022-12-18T06:17:28;22.02;;;10.95;;
48789;SDS011;41718;51.980;5.734;2022-12-18T06:22:33;20.80;;;10.32;;
48789;SDS011;41718;51.980;5.734;2022-12-18T06:27:36;20.08;;;11.35;;
48789;SDS011;41718;51.980;5.734;2022-12-18T06:32:37;18.63;;;10.38;;
48789;SDS011;41718;51.980;5.734;2022-12-18T06:37:39;17.83;;;10.10;;
48789;SDS011;41718;51.980;5.734;2022-12-18T06:42:40;24.58;;;13.15;;
48789;SDS011;41718;51.980;5.734;2022-12-18T06:47:41;21.40;;;11.70;;
48789;SDS011;41718;51.980;5.734;2022-12-18T06:52:43;21.55;;;12.40;;
48789;SDS011;41718;51.980;5.734;2022-12-18T06:57:45;19.77;;;12.50;;
48789;SDS011;41718;51.980;5.734;2022-12-18T07:02:46;23.55;;;13.48;;
48789;SDS011;41718;51.980;5.734;2022-12-18T07:07:49;27.77;;;12.95;;
48789;SDS011;41718;51.980;5.734;2022-12-18T07:12:50;20.40;;;11.07;;
48789;SDS011;41718;51.980;5.734;2022-12-18T07:17:52;18.65;;;12.00;;
48789;SDS011;41718;51.980;5.734;2022-12-18T07:22:53;26.58;;;15.40;;
48789;SDS011;41718;51.980;5.734;2022-12-18T07:27:56;30.38;;;16.40;;
48789;SDS011;41718;51.980;5.734;2022-12-18T07:32:58;33.75;;;16.48;;
48789;SDS011;41718;51.980;5.734;2022-12-18T07:38:01;19.20;;;11.52;;
48789;SDS011;41718;51.980;5.734;2022-12-18T07:43:03;25.02;;;14.48;;
48789;SDS011;41718;51.980;5.734;2022-12-18T07:48:04;20.65;;;13.98;;
48789;SDS011;41718;51.980;5.734;2022-12-18T07:53:06;29.35;;;14.57;;
48789;SDS011;41718;51.980;5.734;2022-12-18T07:58:07;25.23;;;13.88;;
48789;SDS011;41718;51.980;5.734;2022-12-18T08:03:09;23.77;;;12.95;;
48789;SDS011;41718;51.980;5.734;2022-12-18T08:08:12;19.80;;;11.50;;
48789;SDS011;41718;51.980;5.734;2022-12-18T08:13:13;27.52;;;12.93;;
48789;SDS011;41718;51.980;5.734;2022-12-18T08:18:15;28.08;;;13.25;;
48789;SDS011;41718;51.980;5.734;2022-12-18T08:23:16;19.38;;;13.88;;
48789;SDS011;41718;51.980;5.734;2022-12-18T08:28:18;21.83;;;13.18;;
48789;SDS011;41718;51.980;5.734;2022-12-18T08:33:19;21.83;;;13.02;;
48789;SDS011;41718;51.980;5.734;2022-12-18T08:38:20;20.50;;;12.32;;
48789;SDS011;41718;51.980;5.734;2022-12-18T08:43:22;18.55;;;11.73;;
48789;SDS011;41718;51.980;5.734;2022-12-18T08:48:43;20.55;;;11.48;;
48789;SDS011;41718;51.980;5.734;2022-12-18T08:53:44;21.00;;;12.90;;
48789;SDS011;41718;51.980;5.734;2022-12-18T08:58:46;23.48;;;12.73;;
48789;SDS011;41718;51.980;5.734;2022-12-18T09:03:48;27.83;;;17.42;;
48789;SDS011;41718;51.980;5.734;2022-12-18T09:08:50;17.35;;;11.35;;
48789;SDS011;41718;51.980;5.734;2022-12-18T09:13:52;20.15;;;12.25;;
48789;SDS011;41718;51.980;5.734;2022-12-18T09:18:55;22.10;;;11.07;;
48789;SDS011;41718;51.980;5.734;2022-12-18T09:24:00;20.85;;;11.75;;
48789;SDS011;41718;51.980;5.734;2022-12-18T09:29:02;13.95;;;8.02;;
48789;SDS011;41718;51.980;5.734;2022-12-18T09:34:04;18.17;;;11.20;;
48789;SDS011;41718;51.980;5.734;2022-12-18T09:39:07;18.27;;;11.43;;
48789;SDS011;41718;51.980;5.734;2022-12-18T09:49:45;18.02;;;11.32;;
48789;SDS011;41718;51.980;5.734;2022-12-18T09:54:50;11.98;;;8.10;;
48789;SDS011;41718;51.980;5.734;2022-12-18T09:59:56;20.17;;;9.68;;
48789;SDS011;41718;51.980;5.734;2022-12-18T10:05:04;16.25;;;9.90;;
48789;SDS011;41718;51.980;5.734;2022-12-18T10:15:28;21.98;;;10.63;;
48789;SDS011;41718;51.980;5.734;2022-12-18T10:20:40;12.30;;;8.55;;
48789;SDS011;41718;51.980;5.734;2022-12-18T10:25:59;17.42;;;10.07;;
48789;SDS011;41718;51.980;5.734;2022-12-18T10:31:05;14.02;;;9.48;;
48789;SDS011;41718;51.980;5.734;2022-12-18T10:36:07;19.20;;;10.90;;
48789;SDS011;41718;51.980;5.734;2022-12-18T10:46:24;21.10;;;11.73;;
48789;SDS011;41718;51.980;5.734;2022-12-18T10:56:38;20.67;;;11.40;;
48789;SDS011;41718;51.980;5.734;2022-12-18T11:01:51;16.70;;;10.15;;
48789;SDS011;41718;51.980;5.734;2022-12-18T11:07:05;22.90;;;15.73;;
48789;SDS011;41718;51.980;5.734;2022-12-18T11:12:19;24.25;;;12.75;;
48789;SDS011;41718;51.980;5.734;2022-12-18T11:22:32;17.17;;;10.73;;
48789;SDS011;41718;51.980;5.734;2022-12-18T11:27:37;15.55;;;8.75;;
48789;SDS011;41718;51.980;5.734;2022-12-18T11:32:40;15.48;;;9.32;;
48789;SDS011;41718;51.980;5.734;2022-12-18T11:37:48;16.23;;;9.15;;
48789;SDS011;41718;51.980;5.734;2022-12-18T11:43:19;16.38;;;9.60;;
48789;SDS011;41718;51.980;5.734;2022-12-18T11:48:38;18.50;;;11.13;;
48789;SDS011;41718;51.980;5.734;2022-12-18T11:53:46;13.65;;;8.85;;
48789;SDS011;41718;51.980;5.734;2022-12-18T12:09:34;15.93;;;10.63;;
48789;SDS011;41718;51.980;5.734;2022-12-18T12:15:05;22.05;;;12.52;;
48789;SDS011;41718;51.980;5.734;2022-12-18T12:20:20;31.33;;;16.67;;
48789;SDS011;41718;51.980;5.734;2022-12-18T12:35:59;24.42;;;13.88;;
48789;SDS011;41718;51.980;5.734;2022-12-18T12:41:18;21.77;;;12.07;;
48789;SDS011;41718;51.980;5.734;2022-12-18T12:46:44;18.20;;;11.60;;
48789;SDS011;41718;51.980;5.734;2022-12-18T12:51:48;28.83;;;17.90;;
48789;SDS011;41718;51.980;5.734;2022-12-18T12:57:03;27.20;;;14.57;;
48789;SDS011;41718;51.980;5.734;2022-12-18T13:02:22;19.17;;;11.80;;
48789;SDS011;41718;51.980;5.734;2022-12-18T13:07:32;17.52;;;10.38;;
48789;SDS011;41718;51.980;5.734;2022-12-18T13:18:10;20.15;;;11.23;;
48789;SDS011;41718;51.980;5.734;2022-12-18T13:33:46;23.05;;;13.18;;
48789;SDS011;41718;51.980;5.734;2022-12-18T13:44:25;14.13;;;7.68;;
48789;SDS011;41718;51.980;5.734;2022-12-18T13:49:41;21.50;;;10.90;;
48789;SDS011;41718;51.980;5.734;2022-12-18T13:54:46;20.02;;;12.13;;
48789;SDS011;41718;51.980;5.734;2022-12-18T13:59:56;23.80;;;12.00;;
48789;SDS011;41718;51.980;5.734;2022-12-18T14:04:59;15.43;;;8.77;;
48789;SDS011;41718;51.980;5.734;2022-12-18T14:10:00;22.35;;;11.70;;
48789;SDS011;41718;51.980;5.734;2022-12-18T14:20:29;26.85;;;15.57;;
48789;SDS011;41718;51.980;5.734;2022-12-18T14:25:33;16.73;;;11.23;;
48789;SDS011;41718;51.980;5.734;2022-12-18T14:30:35;21.13;;;10.68;;
48789;SDS011;41718;51.980;5.734;2022-12-18T14:35:40;23.90;;;11.88;;
48789;SDS011;41718;51.980;5.734;2022-12-18T14:40:44;20.13;;;12.82;;
48789;SDS011;41718;51.980;5.734;2022-12-18T14:45:45;19.60;;;10.68;;
48789;SDS011;41718;51.980;5.734;2022-12-18T14:50:54;19.85;;;11.30;;
48789;SDS011;41718;51.980;5.734;2022-12-18T14:56:01;16.20;;;11.20;;
48789;SDS011;41718;51.980;5.734;2022-12-18T15:01:03;20.95;;;12.32;;
48789;SDS011;41718;51.980;5.734;2022-12-18T15:06:15;19.00;;;11.13;;
48789;SDS011;41718;51.980;5.734;2022-12-18T15:16:31;21.75;;;13.68;;
48789;SDS011;41718;51.980;5.734;2022-12-18T15:21:32;25.80;;;14.40;;
48789;SDS011;41718;51.980;5.734;2022-12-18T15:26:36;24.95;;;14.50;;
48789;SDS011;41718;51.980;5.734;2022-12-18T15:31:39;26.55;;;14.07;;
48789;SDS011;41718;51.980;5.734;2022-12-18T15:36:44;24.17;;;13.93;;
48789;SDS011;41718;51.980;5.734;2022-12-18T15:41:45;23.27;;;12.02;;
48789;SDS011;41718;51.980;5.734;2022-12-18T15:47:12;27.52;;;13.98;;
48789;SDS011;41718;51.980;5.734;2022-12-18T15:52:14;25.73;;;11.65;;
48789;SDS011;41718;51.980;5.734;2022-12-18T15:57:27;29.27;;;18.42;;
48789;SDS011;41718;51.980;5.734;2022-12-18T16:02:33;27.45;;;15.98;;
48789;SDS011;41718;51.980;5.734;2022-12-18T16:07:37;27.92;;;16.90;;
48789;SDS011;41718;51.980;5.734;2022-12-18T16:12:40;28.40;;;14.60;;
48789;SDS011;41718;51.980;5.734;2022-12-18T16:17:45;26.50;;;14.48;;
48789;SDS011;41718;51.980;5.734;2022-12-18T16:22:48;33.83;;;17.38;;
48789;SDS011;41718;51.980;5.734;2022-12-18T16:27:50;34.75;;;17.13;;
48789;SDS011;41718;51.980;5.734;2022-12-18T16:32:53;30.52;;;16.45;;
48789;SDS011;41718;51.980;5.734;2022-12-18T16:37:55;28.80;;;16.70;;
48789;SDS011;41718;51.980;5.734;2022-12-18T16:42:56;44.38;;;23.45;;
48789;SDS011;41718;51.980;5.734;2022-12-18T16:47:58;32.58;;;17.45;;
48789;SDS011;41718;51.980;5.734;2022-12-18T16:52:59;24.85;;;14.10;;
48789;SDS011;41718;51.980;5.734;2022-12-18T16:58:01;34.33;;;17.58;;
48789;SDS011;41718;51.980;5.734;2022-12-18T17:03:02;27.15;;;15.23;;
48789;SDS011;41718;51.980;5.734;2022-12-18T17:08:04;31.13;;;16.38;;
48789;SDS011;41718;51.980;5.734;2022-12-18T17:13:06;31.02;;;14.70;;
48789;SDS011;41718;51.980;5.734;2022-12-18T17:18:08;26.42;;;16.50;;
48789;SDS011;41718;51.980;5.734;2022-12-18T17:23:09;30.02;;;16.45;;
48789;SDS011;41718;51.980;5.734;2022-12-18T17:28:11;25.13;;;14.75;;
48789;SDS011;41718;51.980;5.734;2022-12-18T17:33:13;27.13;;;15.75;;
48789;SDS011;41718;51.980;5.734;2022-12-18T17:38:17;30.48;;;16.20;;
48789;SDS011;41718;51.980;5.734;2022-12-18T17:43:18;30.42;;;16.08;;
48789;SDS011;41718;51.980;5.734;2022-12-18T17:48:20;28.80;;;16.02;;
48789;SDS011;41718;51.980;5.734;2022-12-18T17:53:22;30.33;;;17.05;;
48789;SDS011;41718;51.980;5.734;2022-12-18T17:58:23;30.58;;;16.55;;
48789;SDS011;41718;51.980;5.734;2022-12-18T18:03:25;31.95;;;17.38;;
48789;SDS011;41718;51.980;5.734;2022-12-18T18:08:29;27.92;;;17.60;;
48789;SDS011;41718;51.980;5.734;2022-12-18T18:13:32;35.80;;;19.40;;
48789;SDS011;41718;51.980;5.734;2022-12-18T18:18:55;40.83;;;20.23;;
48789;SDS011;41718;51.980;5.734;2022-12-18T18:24:00;45.88;;;21.70;;
48789;SDS011;41718;51.980;5.734;2022-12-18T18:29:04;42.08;;;21.42;;
48789;SDS011;41718;51.980;5.734;2022-12-18T18:34:13;45.67;;;24.63;;
48789;SDS011;41718;51.980;5.734;2022-12-18T18:39:16;36.53;;;20.30;;
48789;SDS011;41718;51.980;5.734;2022-12-18T18:44:18;38.50;;;20.30;;
48789;SDS011;41718;51.980;5.734;2022-12-18T18:49:26;36.70;;;19.45;;
48789;SDS011;41718;51.980;5.734;2022-12-18T18:54:28;29.77;;;16.80;;
48789;SDS011;41718;51.980;5.734;2022-12-18T18:59:31;34.15;;;19.67;;
48789;SDS011;41718;51.980;5.734;2022-12-18T19:04:32;35.00;;;18.33;;
48789;SDS011;41718;51.980;5.734;2022-12-18T19:09:34;31.75;;;16.83;;
48789;SDS011;41718;51.980;5.734;2022-12-18T19:14:36;31.52;;;18.38;;
48789;SDS011;41718;51.980;5.734;2022-12-18T19:19:37;32.33;;;19.80;;
48789;SDS011;41718;51.980;5.734;2022-12-18T19:24:39;29.55;;;16.90;;
48789;SDS011;41718;51.980;5.734;2022-12-18T19:29:41;33.63;;;18.73;;
48789;SDS011;41718;51.980;5.734;2022-12-18T19:34:45;34.90;;;18.90;;
48789;SDS011;41718;51.980;5.734;2022-12-18T19:39:48;31.20;;;15.40;;
48789;SDS011;41718;51.980;5.734;2022-12-18T19:44:49;37.45;;;18.67;;
48789;SDS011;41718;51.980;5.734;2022-12-18T19:49:51;33.47;;;17.00;;
48789;SDS011;41718;51.980;5.734;2022-12-18T19:54:55;39.28;;;22.83;;
48789;SDS011;41718;51.980;5.734;2022-12-18T19:59:58;53.22;;;24.90;;
48789;SDS011;41718;51.980;5.734;2022-12-18T20:05:00;45.78;;;21.75;;
48789;SDS011;41718;51.980;5.734;2022-12-18T20:10:02;40.05;;;18.83;;
48789;SDS011;41718;51.980;5.734;2022-12-18T20:15:09;33.78;;;18.00;;
48789;SDS011;41718;51.980;5.734;2022-12-18T20:20:11;37.08;;;19.92;;
48789;SDS011;41718;51.980;5.734;2022-12-18T20:25:13;30.95;;;19.05;;
48789;SDS011;41718;51.980;5.734;2022-12-18T20:30:17;35.13;;;19.00;;
48789;SDS011;41718;51.980;5.734;2022-12-18T20:35:19;34.88;;;20.35;;
48789;SDS011;41718;51.980;5.734;2022-12-18T20:40:21;38.70;;;20.05;;
48789;SDS011;41718;51.980;5.734;2022-12-18T20:45:23;36.13;;;19.33;;
48789;SDS011;41718;51.980;5.734;2022-12-18T20:50:25;32.28;;;17.70;;
48789;SDS011;41718;51.980;5.734;2022-12-18T20:55:27;34.67;;;18.88;;
48789;SDS011;41718;51.980;5.734;2022-12-18T21:00:31;33.95;;;19.40;;
48789;SDS011;41718;51.980;5.734;2022-12-18T21:05:34;35.47;;;18.60;;
48789;SDS011;41718;51.980;5.734;2022-12-18T21:10:41;32.42;;;18.95;;
48789;SDS011;41718;51.980;5.734;2022-12-18T21:15:51;39.15;;;20.67;;
48789;SDS011;41718;51.980;5.734;2022-12-18T21:20:57;41.55;;;18.77;;
48789;SDS011;41718;51.980;5.734;2022-12-18T21:26:18;33.90;;;18.20;;
48789;SDS011;41718;51.980;5.734;2022-12-18T21:31:22;37.17;;;20.40;;
48789;SDS011;41718;51.980;5.734;2022-12-18T21:36:27;43.50;;;20.60;;
48789;SDS011;41718;51.980;5.734;2022-12-18T21:41:34;35.03;;;18.50;;
48789;SDS011;41718;51.980;5.734;2022-12-18T21:46:56;38.33;;;19.50;;
48789;SDS011;41718;51.980;5.734;2022-12-18T21:52:12;33.65;;;19.38;;
48789;SDS011;41718;51.980;5.734;2022-12-18T21:57:18;28.90;;;15.73;;
48789;SDS011;41718;51.980;5.734;2022-12-18T22:02:20;45.47;;;21.23;;
48789;SDS011;41718;51.980;5.734;2022-12-18T22:07:27;36.17;;;21.60;;
48789;SDS011;41718;51.980;5.734;2022-12-18T22:12:29;37.75;;;20.83;;
48789;SDS011;41718;51.980;5.734;2022-12-18T22:17:45;44.28;;;22.40;;
48789;SDS011;41718;51.980;5.734;2022-12-18T22:22:47;39.13;;;20.90;;
48789;SDS011;41718;51.980;5.734;2022-12-18T22:27:51;34.85;;;19.23;;
48789;SDS011;41718;51.980;5.734;2022-12-18T22:33:12;35.10;;;19.50;;
48789;SDS011;41718;51.980;5.734;2022-12-18T22:38:13;42.58;;;22.20;;
48789;SDS011;41718;51.980;5.734;2022-12-18T22:43:22;42.05;;;23.85;;
48789;SDS011;41718;51.980;5.734;2022-12-18T22:48:24;45.45;;;23.77;;
48789;SDS011;41718;51.980;5.734;2022-12-18T22:53:33;40.25;;;21.40;;
48789;SDS011;41718;51.980;5.734;2022-12-18T22:58:48;42.30;;;23.42;;
48789;SDS011;41718;51.980;5.734;2022-12-18T23:03:50;39.08;;;22.10;;
48789;SDS011;41718;51.980;5.734;2022-12-18T23:08:54;39.25;;;21.17;;
48789;SDS011;41718;51.980;5.734;2022-12-18T23:14:01;48.58;;;21.85;;
48789;SDS011;41718;51.980;5.734;2022-12-18T23:19:03;54.90;;;24.20;;
48789;SDS011;41718;51.980;5.734;2022-12-18T23:24:06;40.72;;;21.40;;
48789;SDS011;41718;51.980;5.734;2022-12-18T23:29:08;44.22;;;22.83;;
48789;SDS011;41718;51.980;5.734;2022-12-18T23:34:10;46.40;;;21.90;;
48789;SDS011;41718;51.980;5.734;2022-12-18T23:39:13;56.60;;;24.50;;
48789;SDS011;41718;51.980;5.734;2022-12-18T23:44:29;38.22;;;22.65;;
48789;SDS011;41718;51.980;5.734;2022-12-18T23:49:30;44.15;;;23.23;;
48789;SDS011;41718;51.980;5.734;2022-12-18T23:54:32;47.35;;;24.33;;
48789;SDS011;41718;51.980;5.734;2022-12-18T23:59:34;47.88;;;23.48;;
